sensor_id;sensor_type;location;lat;lon;timestamp;P1;durP1;ratioP1;P2;durP2;ratioP2
15312;SDS011;7757;52.626;4.746;2023-02-18T00:00:43;14.25;;;2.30;;
15312;SDS011;7757;52.626;4.746;2023-02-18T00:03:30;12.95;;;2.30;;
15312;SDS011;7757;52.626;4.746;2023-02-18T00:06:16;15.10;;;3.22;;
15312;SDS011;7757;52.626;4.746;2023-02-18T00:09:04;12.48;;;2.45;;
15312;SDS011;7757;52.626;4.746;2023-02-18T00:11:51;8.38;;;1.90;;
15312;SDS011;7757;52.626;4.746;2023-02-18T00:14:37;14.18;;;2.42;;
15312;SDS011;7757;52.626;4.746;2023-02-18T00:17:22;16.33;;;3.17;;
15312;SDS011;7757;52.626;4.746;2023-02-18T00:20:09;12.80;;;2.58;;
15312;SDS011;7757;52.626;4.746;2023-02-18T00:22:55;9.55;;;2.35;;
15312;SDS011;7757;52.626;4.746;2023-02-18T00:25:40;12.65;;;2.67;;
15312;SDS011;7757;52.626;4.746;2023-02-18T00:28:26;12.55;;;2.20;;
15312;SDS011;7757;52.626;4.746;2023-02-18T00:31:12;15.23;;;2.00;;
15312;SDS011;7757;52.626;4.746;2023-02-18T00:33:59;11.65;;;2.55;;
15312;SDS011;7757;52.626;4.746;2023-02-18T00:36:45;15.13;;;2.55;;
15312;SDS011;7757;52.626;4.746;2023-02-18T00:39:31;14.05;;;2.40;;
15312;SDS011;7757;52.626;4.746;2023-02-18T00:42:16;13.23;;;2.85;;
15312;SDS011;7757;52.626;4.746;2023-02-18T00:45:02;12.52;;;2.60;;
15312;SDS011;7757;52.626;4.746;2023-02-18T00:47:48;14.60;;;3.20;;
15312;SDS011;7757;52.626;4.746;2023-02-18T00:50:33;14.48;;;2.83;;
15312;SDS011;7757;52.626;4.746;2023-02-18T00:53:20;18.98;;;2.70;;
15312;SDS011;7757;52.626;4.746;2023-02-18T00:56:06;15.02;;;3.35;;
15312;SDS011;7757;52.626;4.746;2023-02-18T00:58:51;11.02;;;2.53;;
15312;SDS011;7757;52.626;4.746;2023-02-18T01:01:37;14.93;;;2.75;;
15312;SDS011;7757;52.626;4.746;2023-02-18T01:04:23;12.38;;;2.17;;
15312;SDS011;7757;52.626;4.746;2023-02-18T01:07:08;15.50;;;2.95;;
15312;SDS011;7757;52.626;4.746;2023-02-18T01:09:55;15.65;;;2.95;;
15312;SDS011;7757;52.626;4.746;2023-02-18T01:12:41;13.80;;;2.72;;
15312;SDS011;7757;52.626;4.746;2023-02-18T01:15:26;16.75;;;3.10;;
15312;SDS011;7757;52.626;4.746;2023-02-18T01:18:12;16.55;;;3.65;;
15312;SDS011;7757;52.626;4.746;2023-02-18T01:20:58;15.68;;;3.22;;
15312;SDS011;7757;52.626;4.746;2023-02-18T01:23:44;12.93;;;2.42;;
15312;SDS011;7757;52.626;4.746;2023-02-18T01:26:30;15.25;;;3.83;;
15312;SDS011;7757;52.626;4.746;2023-02-18T01:29:15;13.05;;;2.70;;
15312;SDS011;7757;52.626;4.746;2023-02-18T01:32:01;14.38;;;3.00;;
15312;SDS011;7757;52.626;4.746;2023-02-18T01:34:47;17.52;;;2.80;;
15312;SDS011;7757;52.626;4.746;2023-02-18T01:37:32;22.58;;;3.38;;
15312;SDS011;7757;52.626;4.746;2023-02-18T01:40:18;19.80;;;3.40;;
15312;SDS011;7757;52.626;4.746;2023-02-18T01:43:09;14.63;;;3.00;;
15312;SDS011;7757;52.626;4.746;2023-02-18T01:46:02;14.93;;;3.17;;
15312;SDS011;7757;52.626;4.746;2023-02-18T01:48:51;16.60;;;3.20;;
15312;SDS011;7757;52.626;4.746;2023-02-18T01:51:40;16.30;;;3.67;;
15312;SDS011;7757;52.626;4.746;2023-02-18T01:54:29;15.30;;;3.35;;
15312;SDS011;7757;52.626;4.746;2023-02-18T01:57:19;19.15;;;3.40;;
15312;SDS011;7757;52.626;4.746;2023-02-18T02:00:09;15.35;;;2.80;;
15312;SDS011;7757;52.626;4.746;2023-02-18T02:02:56;19.10;;;4.53;;
15312;SDS011;7757;52.626;4.746;2023-02-18T02:05:41;17.30;;;4.22;;
15312;SDS011;7757;52.626;4.746;2023-02-18T02:08:26;13.77;;;3.30;;
15312;SDS011;7757;52.626;4.746;2023-02-18T02:11:23;23.10;;;4.65;;
15312;SDS011;7757;52.626;4.746;2023-02-18T02:14:21;24.70;;;4.38;;
15312;SDS011;7757;52.626;4.746;2023-02-18T02:17:21;21.63;;;4.30;;
15312;SDS011;7757;52.626;4.746;2023-02-18T02:20:21;17.20;;;3.88;;
15312;SDS011;7757;52.626;4.746;2023-02-18T02:23:29;19.02;;;4.32;;
15312;SDS011;7757;52.626;4.746;2023-02-18T02:26:43;18.13;;;4.57;;
15312;SDS011;7757;52.626;4.746;2023-02-18T02:29:51;16.98;;;4.40;;
15312;SDS011;7757;52.626;4.746;2023-02-18T02:36:35;26.02;;;5.20;;
15312;SDS011;7757;52.626;4.746;2023-02-18T02:39:25;19.98;;;5.65;;
15312;SDS011;7757;52.626;4.746;2023-02-18T02:42:18;21.00;;;5.70;;
15312;SDS011;7757;52.626;4.746;2023-02-18T02:45:10;23.02;;;6.47;;
15312;SDS011;7757;52.626;4.746;2023-02-18T02:48:04;20.20;;;5.97;;
15312;SDS011;7757;52.626;4.746;2023-02-18T02:50:59;23.00;;;6.03;;
15312;SDS011;7757;52.626;4.746;2023-02-18T02:53:53;29.05;;;7.32;;
15312;SDS011;7757;52.626;4.746;2023-02-18T02:56:38;26.60;;;7.18;;
15312;SDS011;7757;52.626;4.746;2023-02-18T02:59:23;22.98;;;7.03;;
15312;SDS011;7757;52.626;4.746;2023-02-18T03:02:15;26.65;;;6.93;;
15312;SDS011;7757;52.626;4.746;2023-02-18T03:05:18;27.30;;;7.47;;
15312;SDS011;7757;52.626;4.746;2023-02-18T03:08:18;30.58;;;9.00;;
15312;SDS011;7757;52.626;4.746;2023-02-18T03:11:15;24.65;;;7.35;;
15312;SDS011;7757;52.626;4.746;2023-02-18T03:14:03;30.40;;;8.32;;
15312;SDS011;7757;52.626;4.746;2023-02-18T03:16:57;25.70;;;8.23;;
15312;SDS011;7757;52.626;4.746;2023-02-18T03:19:46;30.05;;;9.80;;
15312;SDS011;7757;52.626;4.746;2023-02-18T03:22:37;28.20;;;8.57;;
15312;SDS011;7757;52.626;4.746;2023-02-18T03:25:25;26.33;;;8.85;;
15312;SDS011;7757;52.626;4.746;2023-02-18T03:28:14;29.77;;;9.60;;
15312;SDS011;7757;52.626;4.746;2023-02-18T03:31:03;31.35;;;9.13;;
15312;SDS011;7757;52.626;4.746;2023-02-18T03:33:53;26.38;;;8.48;;
15312;SDS011;7757;52.626;4.746;2023-02-18T03:36:43;29.55;;;9.13;;
15312;SDS011;7757;52.626;4.746;2023-02-18T03:39:30;25.83;;;8.88;;
15312;SDS011;7757;52.626;4.746;2023-02-18T03:42:18;32.55;;;9.45;;
15312;SDS011;7757;52.626;4.746;2023-02-18T03:45:05;29.55;;;9.65;;
15312;SDS011;7757;52.626;4.746;2023-02-18T03:47:50;28.80;;;10.32;;
15312;SDS011;7757;52.626;4.746;2023-02-18T03:50:36;25.75;;;8.38;;
15312;SDS011;7757;52.626;4.746;2023-02-18T03:53:21;24.15;;;8.88;;
15312;SDS011;7757;52.626;4.746;2023-02-18T03:56:06;28.80;;;9.68;;
15312;SDS011;7757;52.626;4.746;2023-02-18T03:58:52;25.42;;;9.75;;
15312;SDS011;7757;52.626;4.746;2023-02-18T04:01:38;28.50;;;8.75;;
15312;SDS011;7757;52.626;4.746;2023-02-18T04:04:24;24.73;;;8.48;;
15312;SDS011;7757;52.626;4.746;2023-02-18T04:07:09;23.05;;;8.23;;
15312;SDS011;7757;52.626;4.746;2023-02-18T04:09:55;23.63;;;7.68;;
15312;SDS011;7757;52.626;4.746;2023-02-18T04:12:40;22.13;;;7.63;;
15312;SDS011;7757;52.626;4.746;2023-02-18T04:15:26;26.63;;;8.13;;
15312;SDS011;7757;52.626;4.746;2023-02-18T04:18:12;21.08;;;7.07;;
15312;SDS011;7757;52.626;4.746;2023-02-18T04:20:58;23.55;;;7.13;;
15312;SDS011;7757;52.626;4.746;2023-02-18T04:23:43;17.27;;;6.90;;
15312;SDS011;7757;52.626;4.746;2023-02-18T04:26:29;18.48;;;6.70;;
15312;SDS011;7757;52.626;4.746;2023-02-18T04:29:14;19.98;;;7.00;;
15312;SDS011;7757;52.626;4.746;2023-02-18T04:31:59;20.90;;;7.18;;
15312;SDS011;7757;52.626;4.746;2023-02-18T04:34:46;21.10;;;6.82;;
15312;SDS011;7757;52.626;4.746;2023-02-18T04:37:32;21.95;;;7.15;;
15312;SDS011;7757;52.626;4.746;2023-02-18T04:40:17;20.92;;;6.68;;
15312;SDS011;7757;52.626;4.746;2023-02-18T04:43:02;26.75;;;8.25;;
15312;SDS011;7757;52.626;4.746;2023-02-18T04:45:48;19.83;;;6.65;;
15312;SDS011;7757;52.626;4.746;2023-02-18T04:48:34;20.38;;;6.78;;
15312;SDS011;7757;52.626;4.746;2023-02-18T04:51:21;23.13;;;6.82;;
15312;SDS011;7757;52.626;4.746;2023-02-18T04:54:06;20.13;;;7.32;;
15312;SDS011;7757;52.626;4.746;2023-02-18T04:56:51;24.98;;;7.72;;
15312;SDS011;7757;52.626;4.746;2023-02-18T04:59:37;22.05;;;6.88;;
15312;SDS011;7757;52.626;4.746;2023-02-18T05:02:22;24.95;;;8.23;;
15312;SDS011;7757;52.626;4.746;2023-02-18T05:05:08;21.95;;;6.55;;
15312;SDS011;7757;52.626;4.746;2023-02-18T05:07:54;22.92;;;6.70;;
15312;SDS011;7757;52.626;4.746;2023-02-18T05:10:40;21.27;;;6.13;;
15312;SDS011;7757;52.626;4.746;2023-02-18T05:13:26;21.60;;;6.82;;
15312;SDS011;7757;52.626;4.746;2023-02-18T05:16:11;25.88;;;6.53;;
15312;SDS011;7757;52.626;4.746;2023-02-18T05:18:56;20.38;;;6.55;;
15312;SDS011;7757;52.626;4.746;2023-02-18T05:21:42;24.73;;;7.10;;
15312;SDS011;7757;52.626;4.746;2023-02-18T05:24:29;23.38;;;6.68;;
15312;SDS011;7757;52.626;4.746;2023-02-18T05:27:13;25.27;;;6.72;;
15312;SDS011;7757;52.626;4.746;2023-02-18T05:29:59;23.42;;;6.28;;
15312;SDS011;7757;52.626;4.746;2023-02-18T05:32:44;20.40;;;5.80;;
15312;SDS011;7757;52.626;4.746;2023-02-18T05:35:30;17.33;;;5.50;;
15312;SDS011;7757;52.626;4.746;2023-02-18T05:38:15;23.35;;;5.72;;
15312;SDS011;7757;52.626;4.746;2023-02-18T05:41:02;26.10;;;6.07;;
15312;SDS011;7757;52.626;4.746;2023-02-18T05:43:47;18.67;;;4.93;;
15312;SDS011;7757;52.626;4.746;2023-02-18T05:46:50;21.27;;;5.75;;
15312;SDS011;7757;52.626;4.746;2023-02-18T05:49:36;17.80;;;5.47;;
15312;SDS011;7757;52.626;4.746;2023-02-18T05:52:23;19.33;;;5.78;;
15312;SDS011;7757;52.626;4.746;2023-02-18T05:55:08;22.25;;;5.63;;
15312;SDS011;7757;52.626;4.746;2023-02-18T05:57:55;20.23;;;5.75;;
15312;SDS011;7757;52.626;4.746;2023-02-18T06:00:41;21.27;;;4.75;;
15312;SDS011;7757;52.626;4.746;2023-02-18T06:03:26;16.77;;;4.88;;
15312;SDS011;7757;52.626;4.746;2023-02-18T06:06:11;17.75;;;5.25;;
15312;SDS011;7757;52.626;4.746;2023-02-18T06:08:57;17.00;;;4.32;;
15312;SDS011;7757;52.626;4.746;2023-02-18T06:11:42;19.80;;;4.97;;
15312;SDS011;7757;52.626;4.746;2023-02-18T06:14:29;23.02;;;4.88;;
15312;SDS011;7757;52.626;4.746;2023-02-18T06:17:14;18.45;;;4.30;;
15312;SDS011;7757;52.626;4.746;2023-02-18T06:20:01;17.35;;;4.35;;
15312;SDS011;7757;52.626;4.746;2023-02-18T06:22:46;17.17;;;4.07;;
15312;SDS011;7757;52.626;4.746;2023-02-18T06:25:32;20.38;;;4.97;;
15312;SDS011;7757;52.626;4.746;2023-02-18T06:28:17;22.63;;;4.88;;
15312;SDS011;7757;52.626;4.746;2023-02-18T06:31:04;22.20;;;5.15;;
15312;SDS011;7757;52.626;4.746;2023-02-18T06:33:49;19.17;;;4.30;;
15312;SDS011;7757;52.626;4.746;2023-02-18T06:36:38;17.38;;;4.63;;
15312;SDS011;7757;52.626;4.746;2023-02-18T06:39:23;17.33;;;4.50;;
15312;SDS011;7757;52.626;4.746;2023-02-18T06:42:08;18.58;;;4.43;;
15312;SDS011;7757;52.626;4.746;2023-02-18T06:44:54;20.02;;;4.35;;
15312;SDS011;7757;52.626;4.746;2023-02-18T06:47:40;22.13;;;4.18;;
15312;SDS011;7757;52.626;4.746;2023-02-18T06:50:25;28.27;;;5.07;;
15312;SDS011;7757;52.626;4.746;2023-02-18T06:53:11;19.17;;;4.82;;
15312;SDS011;7757;52.626;4.746;2023-02-18T06:55:56;21.17;;;4.57;;
15312;SDS011;7757;52.626;4.746;2023-02-18T06:58:42;17.33;;;4.07;;
15312;SDS011;7757;52.626;4.746;2023-02-18T07:01:27;16.35;;;4.15;;
15312;SDS011;7757;52.626;4.746;2023-02-18T07:04:14;16.00;;;4.00;;
15312;SDS011;7757;52.626;4.746;2023-02-18T07:06:59;17.90;;;4.70;;
15312;SDS011;7757;52.626;4.746;2023-02-18T07:09:44;21.23;;;4.82;;
15312;SDS011;7757;52.626;4.746;2023-02-18T07:12:30;19.30;;;4.43;;
15312;SDS011;7757;52.626;4.746;2023-02-18T07:15:15;15.43;;;4.32;;
15312;SDS011;7757;52.626;4.746;2023-02-18T07:18:03;18.00;;;4.43;;
15312;SDS011;7757;52.626;4.746;2023-02-18T07:20:50;20.95;;;5.57;;
15312;SDS011;7757;52.626;4.746;2023-02-18T07:23:35;24.15;;;4.60;;
15312;SDS011;7757;52.626;4.746;2023-02-18T07:26:21;17.25;;;4.05;;
15312;SDS011;7757;52.626;4.746;2023-02-18T07:29:06;15.30;;;4.00;;
15312;SDS011;7757;52.626;4.746;2023-02-18T07:31:51;14.48;;;3.95;;
15312;SDS011;7757;52.626;4.746;2023-02-18T07:34:37;22.80;;;4.55;;
15312;SDS011;7757;52.626;4.746;2023-02-18T07:37:24;16.38;;;3.60;;
15312;SDS011;7757;52.626;4.746;2023-02-18T07:40:09;22.60;;;4.55;;
15312;SDS011;7757;52.626;4.746;2023-02-18T07:42:57;22.13;;;4.85;;
15312;SDS011;7757;52.626;4.746;2023-02-18T07:45:43;22.00;;;3.92;;
15312;SDS011;7757;52.626;4.746;2023-02-18T07:48:28;15.32;;;3.65;;
15312;SDS011;7757;52.626;4.746;2023-02-18T07:51:14;16.48;;;3.83;;
15312;SDS011;7757;52.626;4.746;2023-02-18T07:54:01;17.20;;;3.75;;
15312;SDS011;7757;52.626;4.746;2023-02-18T07:56:46;19.63;;;3.42;;
15312;SDS011;7757;52.626;4.746;2023-02-18T07:59:31;18.25;;;4.78;;
15312;SDS011;7757;52.626;4.746;2023-02-18T08:02:17;15.65;;;3.60;;
15312;SDS011;7757;52.626;4.746;2023-02-18T08:05:04;13.93;;;3.38;;
15312;SDS011;7757;52.626;4.746;2023-02-18T08:07:50;15.82;;;3.22;;
15312;SDS011;7757;52.626;4.746;2023-02-18T08:10:36;20.45;;;3.72;;
15312;SDS011;7757;52.626;4.746;2023-02-18T08:13:22;19.45;;;3.83;;
15312;SDS011;7757;52.626;4.746;2023-02-18T08:16:07;18.33;;;3.42;;
15312;SDS011;7757;52.626;4.746;2023-02-18T08:18:53;19.63;;;3.85;;
15312;SDS011;7757;52.626;4.746;2023-02-18T08:21:39;18.67;;;3.30;;
15312;SDS011;7757;52.626;4.746;2023-02-18T08:24:25;16.17;;;2.80;;
15312;SDS011;7757;52.626;4.746;2023-02-18T08:27:11;14.20;;;2.70;;
15312;SDS011;7757;52.626;4.746;2023-02-18T08:29:57;16.08;;;3.03;;
15312;SDS011;7757;52.626;4.746;2023-02-18T08:32:42;21.92;;;2.92;;
15312;SDS011;7757;52.626;4.746;2023-02-18T08:35:28;17.15;;;2.85;;
15312;SDS011;7757;52.626;4.746;2023-02-18T08:38:14;13.77;;;2.67;;
15312;SDS011;7757;52.626;4.746;2023-02-18T08:41:00;21.63;;;2.97;;
15312;SDS011;7757;52.626;4.746;2023-02-18T08:43:48;13.75;;;2.65;;
15312;SDS011;7757;52.626;4.746;2023-02-18T08:46:33;16.63;;;2.70;;
15312;SDS011;7757;52.626;4.746;2023-02-18T08:49:19;13.38;;;2.20;;
15312;SDS011;7757;52.626;4.746;2023-02-18T08:52:06;19.15;;;3.05;;
15312;SDS011;7757;52.626;4.746;2023-02-18T08:54:52;16.67;;;2.80;;
15312;SDS011;7757;52.626;4.746;2023-02-18T08:57:37;20.00;;;2.50;;
15312;SDS011;7757;52.626;4.746;2023-02-18T09:00:24;14.27;;;2.75;;
15312;SDS011;7757;52.626;4.746;2023-02-18T09:03:11;18.80;;;2.90;;
15312;SDS011;7757;52.626;4.746;2023-02-18T09:05:57;16.15;;;2.50;;
15312;SDS011;7757;52.626;4.746;2023-02-18T09:08:43;15.80;;;2.50;;
15312;SDS011;7757;52.626;4.746;2023-02-18T09:11:29;16.45;;;3.13;;
15312;SDS011;7757;52.626;4.746;2023-02-18T09:14:14;13.68;;;2.50;;
15312;SDS011;7757;52.626;4.746;2023-02-18T09:17:01;16.10;;;2.55;;
15312;SDS011;7757;52.626;4.746;2023-02-18T09:19:46;18.13;;;2.63;;
15312;SDS011;7757;52.626;4.746;2023-02-18T09:22:32;23.45;;;3.28;;
15312;SDS011;7757;52.626;4.746;2023-02-18T09:25:17;20.15;;;3.30;;
15312;SDS011;7757;52.626;4.746;2023-02-18T09:28:03;18.42;;;2.70;;
15312;SDS011;7757;52.626;4.746;2023-02-18T09:30:48;20.00;;;2.45;;
15312;SDS011;7757;52.626;4.746;2023-02-18T09:33:35;19.05;;;2.42;;
15312;SDS011;7757;52.626;4.746;2023-02-18T09:36:21;21.45;;;3.20;;
15312;SDS011;7757;52.626;4.746;2023-02-18T09:39:06;21.48;;;4.07;;
15312;SDS011;7757;52.626;4.746;2023-02-18T09:41:52;11.75;;;2.65;;
15312;SDS011;7757;52.626;4.746;2023-02-18T09:44:40;21.55;;;3.08;;
15312;SDS011;7757;52.626;4.746;2023-02-18T09:47:31;16.92;;;2.90;;
15312;SDS011;7757;52.626;4.746;2023-02-18T09:50:20;20.63;;;3.20;;
15312;SDS011;7757;52.626;4.746;2023-02-18T09:53:09;23.58;;;3.10;;
15312;SDS011;7757;52.626;4.746;2023-02-18T09:55:56;17.88;;;2.75;;
15312;SDS011;7757;52.626;4.746;2023-02-18T09:58:43;19.33;;;3.00;;
15312;SDS011;7757;52.626;4.746;2023-02-18T10:01:31;17.75;;;2.92;;
15312;SDS011;7757;52.626;4.746;2023-02-18T10:04:21;19.70;;;3.38;;
15312;SDS011;7757;52.626;4.746;2023-02-18T10:07:10;22.17;;;2.60;;
15312;SDS011;7757;52.626;4.746;2023-02-18T10:10:10;19.48;;;2.75;;
15312;SDS011;7757;52.626;4.746;2023-02-18T10:13:02;21.08;;;2.67;;
15312;SDS011;7757;52.626;4.746;2023-02-18T10:15:51;16.00;;;2.80;;
15312;SDS011;7757;52.626;4.746;2023-02-18T10:18:39;16.17;;;2.75;;
15312;SDS011;7757;52.626;4.746;2023-02-18T10:21:27;20.83;;;3.58;;
15312;SDS011;7757;52.626;4.746;2023-02-18T10:24:24;19.55;;;3.15;;
15312;SDS011;7757;52.626;4.746;2023-02-18T10:27:15;15.07;;;2.30;;
15312;SDS011;7757;52.626;4.746;2023-02-18T10:30:16;19.33;;;2.83;;
15312;SDS011;7757;52.626;4.746;2023-02-18T10:33:10;15.98;;;2.42;;
15312;SDS011;7757;52.626;4.746;2023-02-18T10:36:10;19.55;;;3.33;;
15312;SDS011;7757;52.626;4.746;2023-02-18T10:39:26;18.65;;;2.63;;
15312;SDS011;7757;52.626;4.746;2023-02-18T10:45:20;17.83;;;3.63;;
15312;SDS011;7757;52.626;4.746;2023-02-18T10:51:08;16.48;;;2.53;;
15312;SDS011;7757;52.626;4.746;2023-02-18T10:53:59;23.93;;;2.90;;
15312;SDS011;7757;52.626;4.746;2023-02-18T10:56:47;16.98;;;2.47;;
15312;SDS011;7757;52.626;4.746;2023-02-18T10:59:33;20.17;;;2.78;;
15312;SDS011;7757;52.626;4.746;2023-02-18T11:02:18;21.20;;;4.32;;
15312;SDS011;7757;52.626;4.746;2023-02-18T11:05:11;22.08;;;2.63;;
15312;SDS011;7757;52.626;4.746;2023-02-18T11:08:05;17.73;;;3.42;;
15312;SDS011;7757;52.626;4.746;2023-02-18T11:10:53;17.85;;;2.75;;
15312;SDS011;7757;52.626;4.746;2023-02-18T11:13:41;16.13;;;2.75;;
15312;SDS011;7757;52.626;4.746;2023-02-18T11:16:35;16.02;;;2.63;;
15312;SDS011;7757;52.626;4.746;2023-02-18T11:19:31;26.83;;;3.80;;
15312;SDS011;7757;52.626;4.746;2023-02-18T11:22:19;22.67;;;3.05;;
15312;SDS011;7757;52.626;4.746;2023-02-18T11:25:17;19.48;;;2.63;;
15312;SDS011;7757;52.626;4.746;2023-02-18T11:28:05;20.50;;;3.10;;
15312;SDS011;7757;52.626;4.746;2023-02-18T11:31:15;23.20;;;3.60;;
15312;SDS011;7757;52.626;4.746;2023-02-18T11:34:05;20.77;;;2.80;;
15312;SDS011;7757;52.626;4.746;2023-02-18T11:37:06;16.13;;;2.70;;
15312;SDS011;7757;52.626;4.746;2023-02-18T11:39:53;21.13;;;3.10;;
15312;SDS011;7757;52.626;4.746;2023-02-18T11:42:40;18.60;;;3.15;;
15312;SDS011;7757;52.626;4.746;2023-02-18T11:45:27;20.73;;;3.15;;
15312;SDS011;7757;52.626;4.746;2023-02-18T11:48:15;15.38;;;3.13;;
15312;SDS011;7757;52.626;4.746;2023-02-18T11:51:03;16.23;;;2.80;;
15312;SDS011;7757;52.626;4.746;2023-02-18T11:54:01;14.52;;;3.10;;
15312;SDS011;7757;52.626;4.746;2023-02-18T11:56:53;17.38;;;3.00;;
15312;SDS011;7757;52.626;4.746;2023-02-18T11:59:39;14.82;;;2.90;;
15312;SDS011;7757;52.626;4.746;2023-02-18T12:02:29;15.65;;;3.10;;
15312;SDS011;7757;52.626;4.746;2023-02-18T12:05:20;17.58;;;2.95;;
15312;SDS011;7757;52.626;4.746;2023-02-18T12:08:09;14.65;;;2.90;;
15312;SDS011;7757;52.626;4.746;2023-02-18T12:11:00;16.02;;;3.15;;
15312;SDS011;7757;52.626;4.746;2023-02-18T12:13:49;18.42;;;3.08;;
15312;SDS011;7757;52.626;4.746;2023-02-18T12:16:38;16.05;;;3.53;;
15312;SDS011;7757;52.626;4.746;2023-02-18T12:19:41;18.08;;;3.20;;
15312;SDS011;7757;52.626;4.746;2023-02-18T12:22:42;15.57;;;2.92;;
15312;SDS011;7757;52.626;4.746;2023-02-18T12:25:31;14.40;;;3.05;;
15312;SDS011;7757;52.626;4.746;2023-02-18T12:28:27;18.92;;;3.05;;
15312;SDS011;7757;52.626;4.746;2023-02-18T12:31:28;14.75;;;3.40;;
15312;SDS011;7757;52.626;4.746;2023-02-18T12:34:25;16.20;;;2.80;;
15312;SDS011;7757;52.626;4.746;2023-02-18T12:37:31;16.42;;;3.00;;
15312;SDS011;7757;52.626;4.746;2023-02-18T12:40:45;16.17;;;2.38;;
15312;SDS011;7757;52.626;4.746;2023-02-18T12:43:37;15.82;;;2.70;;
15312;SDS011;7757;52.626;4.746;2023-02-18T12:46:35;15.10;;;2.70;;
15312;SDS011;7757;52.626;4.746;2023-02-18T12:49:37;20.40;;;2.88;;
15312;SDS011;7757;52.626;4.746;2023-02-18T12:52:35;17.45;;;2.88;;
15312;SDS011;7757;52.626;4.746;2023-02-18T12:55:33;14.45;;;2.45;;
15312;SDS011;7757;52.626;4.746;2023-02-18T12:58:30;19.02;;;2.78;;
15312;SDS011;7757;52.626;4.746;2023-02-18T13:01:36;14.35;;;2.70;;
15312;SDS011;7757;52.626;4.746;2023-02-18T13:04:34;15.95;;;2.50;;
15312;SDS011;7757;52.626;4.746;2023-02-18T13:07:32;12.45;;;2.28;;
15312;SDS011;7757;52.626;4.746;2023-02-18T13:13:41;17.10;;;2.80;;
15312;SDS011;7757;52.626;4.746;2023-02-18T13:16:32;14.48;;;2.58;;
15312;SDS011;7757;52.626;4.746;2023-02-18T13:19:19;14.45;;;2.90;;
15312;SDS011;7757;52.626;4.746;2023-02-18T13:22:08;16.85;;;2.60;;
15312;SDS011;7757;52.626;4.746;2023-02-18T13:24:56;15.05;;;2.38;;
15312;SDS011;7757;52.626;4.746;2023-02-18T13:27:44;13.93;;;2.47;;
15312;SDS011;7757;52.626;4.746;2023-02-18T13:30:40;13.85;;;2.42;;
15312;SDS011;7757;52.626;4.746;2023-02-18T13:33:33;14.18;;;2.30;;
15312;SDS011;7757;52.626;4.746;2023-02-18T13:36:29;13.57;;;2.03;;
15312;SDS011;7757;52.626;4.746;2023-02-18T13:39:20;13.25;;;2.20;;
15312;SDS011;7757;52.626;4.746;2023-02-18T13:42:18;12.13;;;2.42;;
15312;SDS011;7757;52.626;4.746;2023-02-18T13:45:26;13.57;;;2.85;;
15312;SDS011;7757;52.626;4.746;2023-02-18T13:48:24;12.75;;;2.63;;
15312;SDS011;7757;52.626;4.746;2023-02-18T13:51:12;15.35;;;2.33;;
15312;SDS011;7757;52.626;4.746;2023-02-18T13:54:00;16.92;;;2.60;;
15312;SDS011;7757;52.626;4.746;2023-02-18T13:56:49;14.93;;;2.80;;
15312;SDS011;7757;52.626;4.746;2023-02-18T13:59:37;16.90;;;2.60;;
15312;SDS011;7757;52.626;4.746;2023-02-18T14:02:30;14.98;;;2.17;;
15312;SDS011;7757;52.626;4.746;2023-02-18T14:05:22;14.68;;;2.22;;
15312;SDS011;7757;52.626;4.746;2023-02-18T14:08:10;14.48;;;2.25;;
15312;SDS011;7757;52.626;4.746;2023-02-18T14:14:14;11.88;;;2.05;;
15312;SDS011;7757;52.626;4.746;2023-02-18T14:23:59;11.15;;;1.80;;
15312;SDS011;7757;52.626;4.746;2023-02-18T14:26:46;14.18;;;2.25;;
15312;SDS011;7757;52.626;4.746;2023-02-18T14:29:33;14.23;;;2.50;;
15312;SDS011;7757;52.626;4.746;2023-02-18T14:32:18;13.18;;;2.33;;
15312;SDS011;7757;52.626;4.746;2023-02-18T14:35:19;12.77;;;2.58;;
15312;SDS011;7757;52.626;4.746;2023-02-18T14:41:32;13.52;;;2.30;;
15312;SDS011;7757;52.626;4.746;2023-02-18T14:44:35;14.03;;;2.40;;
15312;SDS011;7757;52.626;4.746;2023-02-18T14:47:35;14.82;;;2.40;;
15312;SDS011;7757;52.626;4.746;2023-02-18T14:50:38;14.43;;;2.03;;
15312;SDS011;7757;52.626;4.746;2023-02-18T14:53:27;14.68;;;2.80;;
15312;SDS011;7757;52.626;4.746;2023-02-18T14:56:15;10.15;;;1.92;;
15312;SDS011;7757;52.626;4.746;2023-02-18T14:59:02;14.13;;;2.15;;
15312;SDS011;7757;52.626;4.746;2023-02-18T15:01:52;14.30;;;2.55;;
15312;SDS011;7757;52.626;4.746;2023-02-18T15:04:38;11.73;;;2.00;;
15312;SDS011;7757;52.626;4.746;2023-02-18T15:07:23;10.77;;;2.17;;
15312;SDS011;7757;52.626;4.746;2023-02-18T15:10:14;12.90;;;2.13;;
15312;SDS011;7757;52.626;4.746;2023-02-18T15:12:59;15.38;;;2.13;;
15312;SDS011;7757;52.626;4.746;2023-02-18T15:15:46;13.75;;;2.08;;
15312;SDS011;7757;52.626;4.746;2023-02-18T15:18:35;16.80;;;2.42;;
15312;SDS011;7757;52.626;4.746;2023-02-18T15:21:23;17.33;;;2.42;;
15312;SDS011;7757;52.626;4.746;2023-02-18T15:24:16;13.40;;;2.35;;
15312;SDS011;7757;52.626;4.746;2023-02-18T15:27:11;14.85;;;2.28;;
15312;SDS011;7757;52.626;4.746;2023-02-18T15:30:03;15.60;;;2.45;;
15312;SDS011;7757;52.626;4.746;2023-02-18T15:33:01;16.30;;;2.50;;
15312;SDS011;7757;52.626;4.746;2023-02-18T15:35:46;12.85;;;2.08;;
15312;SDS011;7757;52.626;4.746;2023-02-18T15:38:32;11.15;;;2.03;;
15312;SDS011;7757;52.626;4.746;2023-02-18T15:41:18;11.40;;;2.15;;
15312;SDS011;7757;52.626;4.746;2023-02-18T15:44:07;15.63;;;2.15;;
15312;SDS011;7757;52.626;4.746;2023-02-18T15:46:52;13.63;;;2.55;;
15312;SDS011;7757;52.626;4.746;2023-02-18T15:49:37;11.20;;;1.90;;
15312;SDS011;7757;52.626;4.746;2023-02-18T15:52:24;12.38;;;2.20;;
15312;SDS011;7757;52.626;4.746;2023-02-18T15:55:12;13.02;;;2.33;;
15312;SDS011;7757;52.626;4.746;2023-02-18T15:58:03;14.95;;;2.60;;
15312;SDS011;7757;52.626;4.746;2023-02-18T16:00:53;11.43;;;2.17;;
15312;SDS011;7757;52.626;4.746;2023-02-18T16:03:43;15.68;;;2.20;;
15312;SDS011;7757;52.626;4.746;2023-02-18T16:06:30;16.35;;;2.28;;
15312;SDS011;7757;52.626;4.746;2023-02-18T16:09:22;14.30;;;2.40;;
15312;SDS011;7757;52.626;4.746;2023-02-18T16:12:12;12.05;;;2.10;;
15312;SDS011;7757;52.626;4.746;2023-02-18T16:15:13;15.60;;;3.03;;
15312;SDS011;7757;52.626;4.746;2023-02-18T16:18:04;13.75;;;2.22;;
15312;SDS011;7757;52.626;4.746;2023-02-18T16:20:54;12.85;;;2.45;;
15312;SDS011;7757;52.626;4.746;2023-02-18T16:23:42;13.32;;;2.13;;
15312;SDS011;7757;52.626;4.746;2023-02-18T16:26:30;13.65;;;2.15;;
15312;SDS011;7757;52.626;4.746;2023-02-18T16:29:24;7.72;;;1.88;;
15312;SDS011;7757;52.626;4.746;2023-02-18T16:32:15;13.63;;;2.15;;
15312;SDS011;7757;52.626;4.746;2023-02-18T16:35:02;15.25;;;2.70;;
15312;SDS011;7757;52.626;4.746;2023-02-18T16:37:47;12.55;;;2.00;;
15312;SDS011;7757;52.626;4.746;2023-02-18T16:40:34;10.30;;;2.00;;
15312;SDS011;7757;52.626;4.746;2023-02-18T16:43:21;13.50;;;1.92;;
15312;SDS011;7757;52.626;4.746;2023-02-18T16:46:12;14.55;;;2.67;;
15312;SDS011;7757;52.626;4.746;2023-02-18T16:48:59;11.48;;;2.05;;
15312;SDS011;7757;52.626;4.746;2023-02-18T16:51:46;14.73;;;2.40;;
15312;SDS011;7757;52.626;4.746;2023-02-18T16:54:33;16.60;;;2.25;;
15312;SDS011;7757;52.626;4.746;2023-02-18T16:57:18;13.10;;;2.33;;
15312;SDS011;7757;52.626;4.746;2023-02-18T17:00:04;14.48;;;3.33;;
15312;SDS011;7757;52.626;4.746;2023-02-18T17:02:52;11.95;;;2.30;;
15312;SDS011;7757;52.626;4.746;2023-02-18T17:05:39;13.40;;;2.75;;
15312;SDS011;7757;52.626;4.746;2023-02-18T17:08:26;11.23;;;2.20;;
15312;SDS011;7757;52.626;4.746;2023-02-18T17:11:14;14.98;;;2.40;;
15312;SDS011;7757;52.626;4.746;2023-02-18T17:14:03;13.00;;;2.22;;
15312;SDS011;7757;52.626;4.746;2023-02-18T17:16:49;14.75;;;2.40;;
15312;SDS011;7757;52.626;4.746;2023-02-18T17:19:36;13.80;;;2.40;;
15312;SDS011;7757;52.626;4.746;2023-02-18T17:22:22;12.93;;;2.60;;
15312;SDS011;7757;52.626;4.746;2023-02-18T17:25:15;11.05;;;2.30;;